»·PEaware :: SWA1695 KHOU-KSAT

SWA1695 :: KHOU-KSAT

FLIGHT INFORMATION

Flight Status: Arrived
Operator:
Southwest Airlines
More flights by this operator :: More flights under this callsign
Pilot: Drew L. (13237)
Aircraft: BOEING 737-800
(B738)
More flights by this aircraft type
Origin: KHOU Hobby
United States
Destination: KSAT San Antonio Intl
United States
More flights between these airports :: More routes between these airports
Route: RETYR5 WAILN BRAUN2
File this flight plan on PilotEdge
Remarks:
Altitude:
(Current/Filed)
22,000ft
Speed:
(Current/Filed)
455kts
Departed: 09-Oct-17 05:36 PM
Arrived: 09-Oct-17 06:15 PM
Distance/Time
Traveled:
167nm/0:39
Distance/Time
To Go:
Arrived

Flight Plot

Page will automatically refresh every two minutes.

Flight plan parsing failed; only flown route is shown


Map Options




Map Legend


Flown Route
Filed Route
Departure Airport
Arrival Airport
Navaid (VOR, NDB)
Fix

Horizontal Profiles

Position Reports

Time Latitude Longitude Heading Altitude Ground
Speed
09-Oct-17 17:22 29.652632 -95.276583 0 52ft 0kts
09-Oct-17 17:23 29.652632 -95.276583 0 52ft 0kts
09-Oct-17 17:24 29.652632 -95.276583 0 52ft 0kts
09-Oct-17 17:25 29.652632 -95.276583 0 52ft 0kts
09-Oct-17 17:26 29.652632 -95.276583 0 52ft 0kts
09-Oct-17 17:27 29.652632 -95.276583 0 52ft 0kts
09-Oct-17 17:28 29.652632 -95.276583 0 52ft 0kts
09-Oct-17 17:29 29.652632 -95.276583 0 52ft 0kts
09-Oct-17 17:30 29.652632 -95.276583 0 52ft 0kts
09-Oct-17 17:31 29.652631 -95.276583 0 52ft 0kts
09-Oct-17 17:32 29.652631 -95.276583 0 52ft 0kts
09-Oct-17 17:33 29.652476 -95.276582 0 52ft 2kts
09-Oct-17 17:34 29.652130 -95.276438 269 52ft 1kts
09-Oct-17 17:35 29.652135 -95.276389 253 52ft 0kts
09-Oct-17 17:36 29.652135 -95.276389 253 52ft 0kts
09-Oct-17 17:37 29.652021 -95.276728 234 52ft 6kts
09-Oct-17 17:38 29.652297 -95.280097 280 52ft 18kts
09-Oct-17 17:39 29.652496 -95.283715 140 52ft 2kts
09-Oct-17 17:40 29.652469 -95.283685 137 52ft 0kts
09-Oct-17 17:41 29.639653 -95.268386 134 404ft 155kts
09-Oct-17 17:42 29.609121 -95.231275 140 2968ft 174kts
09-Oct-17 17:43 29.566277 -95.239680 233 5653ft 198kts
09-Oct-17 17:43 29.556699 -95.300007 278 7609ft 265kts
09-Oct-17 17:45 29.585362 -95.397409 291 10509ft 305kts
09-Oct-17 17:45 29.614085 -95.479083 290 12700ft 348kts
09-Oct-17 17:47 29.655945 -95.600147 291 17031ft 360kts
09-Oct-17 17:48 29.693214 -95.707043 290 19502ft 393kts
09-Oct-17 17:48 29.724043 -95.806471 280 21879ft 402kts
09-Oct-17 17:49 29.743323 -95.933243 278 21924ft 411kts
09-Oct-17 17:51 29.765643 -96.087323 278 21914ft 418kts
09-Oct-17 17:51 29.780467 -96.197236 273 21903ft 417kts
09-Oct-17 17:52 29.790430 -96.330144 274 21886ft 418kts
09-Oct-17 17:53 29.799210 -96.449100 274 21909ft 417kts
09-Oct-17 17:55 29.810664 -96.604596 274 21884ft 418kts
09-Oct-17 17:55 29.818110 -96.705423 273 21887ft 418kts
09-Oct-17 17:56 29.827803 -96.838159 274 21889ft 418kts
09-Oct-17 17:57 29.837328 -96.971443 274 21886ft 418kts
09-Oct-17 17:58 29.846802 -97.104366 274 21886ft 418kts
09-Oct-17 17:59 29.856030 -97.237526 274 21716ft 404kts
09-Oct-17 18:00 29.864502 -97.360463 274 19906ft 380kts
09-Oct-17 18:01 29.872654 -97.480674 274 18101ft 374kts
09-Oct-17 18:02 29.880763 -97.599361 273 16287ft 371kts
09-Oct-17 18:03 29.888331 -97.717035 273 14498ft 370kts
09-Oct-17 18:04 29.895229 -97.830598 270 12755ft 343kts
09-Oct-17 18:05 29.866652 -97.932038 246 11411ft 324kts
09-Oct-17 18:06 29.830251 -98.021439 245 10074ft 297kts
09-Oct-17 18:07 29.797744 -98.098867 244 9728ft 240kts
09-Oct-17 18:08 29.769025 -98.167059 244 8997ft 239kts
09-Oct-17 18:09 29.740243 -98.235577 242 8030ft 234kts
09-Oct-17 18:10 29.706056 -98.297131 229 7020ft 226kts
09-Oct-17 18:11 29.666153 -98.352453 220 5494ft 220kts
09-Oct-17 18:12 29.621159 -98.398294 219 3893ft 215kts
09-Oct-17 18:13 29.604256 -98.455465 299 2956ft 198kts
09-Oct-17 18:14 29.634948 -98.509420 303 2976ft 188kts
09-Oct-17 18:15 29.631578 -98.557128 205 2827ft 167kts
09-Oct-17 18:16 29.591185 -98.549683 126 2369ft 156kts
09-Oct-17 18:17 29.565998 -98.515566 131 1453ft 129kts
09-Oct-17 18:18 29.541568 -98.484063 131 819ft 125kts
09-Oct-17 18:19 29.532856 -98.473071 162 817ft 19kts
09-Oct-17 18:20 29.529987 -98.472041 303 817ft 7kts
09-Oct-17 18:21 29.528796 -98.472976 132 817ft 0kts
09-Oct-17 18:22 29.528796 -98.472976 132 817ft 0kts

Navigation Log

Ident Type
Flight plan parsing failed, navigation log unavailable